Time;durP1;ratioP1;P1;durP2;ratioP2;P2;SDS_P1;SDS_P2;PMS_P1;PMS_P2;Temp;Humidity;BMP_temperature;BMP_pressure;BME280_temperature;BME280_humidity;BME280_pressure;Samples;Min_cycle;Max_cycle;Signal;HPM_P1;HPM_P2
2022/11/23 00:01:18;;;;;;;23.77;17.23;;;7.90;99.90;;;;;;5033413;28;20045;-84
2022/11/23 00:03:45;;;;;;;21.38;16.45;;;8.00;99.90;;;;;;5028975;28;20042;-84
2022/11/23 00:06:11;;;;;;;21.00;17.30;;;7.90;99.90;;;;;;5018282;28;20034;-83
2022/11/23 00:08:37;;;;;;;20.70;16.63;;;7.90;99.90;;;;;;5041186;28;20142;-84
2022/11/23 00:11:02;;;;;;;21.10;16.35;;;7.90;99.90;;;;;;5014849;28;20491;-84
2022/11/23 00:13:28;;;;;;;23.15;17.33;;;7.90;99.90;;;;;;5036590;28;20033;-84
2022/11/23 00:15:54;;;;;;;18.58;16.42;;;7.90;99.90;;;;;;5033332;28;20041;-84
2022/11/23 00:18:19;;;;;;;25.50;16.67;;;7.90;99.90;;;;;;5035939;28;20380;-83
2022/11/23 00:20:45;;;;;;;22.40;16.58;;;7.90;99.90;;;;;;5039569;28;20044;-84
2022/11/23 00:23:10;;;;;;;23.35;16.42;;;7.90;99.90;;;;;;5030289;28;20034;-84
2022/11/23 00:25:36;;;;;;;18.88;15.18;;;8.00;99.90;;;;;;5034816;28;20041;-84
2022/11/23 00:28:02;;;;;;;20.80;15.85;;;8.00;99.90;;;;;;5039354;28;20026;-84
2022/11/23 00:30:28;;;;;;;17.85;14.63;;;8.00;99.90;;;;;;5037121;28;20050;-84
2022/11/23 00:32:54;;;;;;;20.02;14.55;;;8.00;99.90;;;;;;5018707;28;20033;-84
2022/11/23 00:35:21;;;;;;;15.15;12.63;;;8.00;99.90;;;;;;5045118;28;20105;-84
2022/11/23 00:37:47;;;;;;;15.82;12.90;;;8.00;99.90;;;;;;5018459;28;20045;-84
2022/11/23 00:40:12;;;;;;;17.40;13.57;;;8.00;99.90;;;;;;5030640;28;20040;-84
2022/11/23 00:42:38;;;;;;;20.90;14.43;;;8.00;99.90;;;;;;5026825;28;20037;-84
2022/11/23 00:45:04;;;;;;;17.08;13.60;;;8.10;99.90;;;;;;5037343;28;20033;-84
2022/11/23 00:47:30;;;;;;;20.17;14.35;;;8.10;99.90;;;;;;5028253;28;20084;-84
2022/11/23 00:49:55;;;;;;;17.95;12.82;;;8.00;99.90;;;;;;5053164;28;20029;-84
2022/11/23 00:52:21;;;;;;;18.15;13.73;;;8.00;99.90;;;;;;5046752;28;20052;-84
2022/11/23 00:54:46;;;;;;;16.83;13.30;;;8.00;99.90;;;;;;5033935;28;20029;-84
2022/11/23 00:57:12;;;;;;;17.63;12.73;;;8.00;99.90;;;;;;5017266;28;20037;-84
2022/11/23 00:59:38;;;;;;;15.60;13.13;;;8.00;99.90;;;;;;5040348;28;20037;-84
2022/11/23 01:02:03;;;;;;;15.80;13.07;;;8.00;99.90;;;;;;5032161;28;20081;-84
2022/11/23 01:04:29;;;;;;;17.00;12.93;;;8.00;99.90;;;;;;5041392;28;20041;-83
2022/11/23 01:06:58;;;;;;;14.85;12.90;;;8.00;99.90;;;;;;5042702;28;20045;-85
2022/11/23 01:09:25;;;;;;;19.20;13.13;;;8.00;99.90;;;;;;5027918;28;20029;-85
2022/11/23 01:11:55;;;;;;;17.75;13.38;;;8.00;99.90;;;;;;5037495;28;20045;-85
2022/11/23 01:14:21;;;;;;;18.65;13.38;;;8.00;99.90;;;;;;5031352;28;20034;-85
2022/11/23 01:16:47;;;;;;;16.17;12.98;;;8.00;99.90;;;;;;5014095;28;20038;-85
2022/11/23 01:19:15;;;;;;;16.02;12.25;;;8.00;99.90;;;;;;5037414;28;20045;-84
2022/11/23 01:21:41;;;;;;;15.25;12.55;;;8.10;99.90;;;;;;5034688;28;20033;-84
2022/11/23 01:24:13;;;;;;;14.93;11.65;;;8.10;99.90;;;;;;5017443;28;20042;-83
2022/11/23 01:26:39;;;;;;;14.63;11.05;;;8.10;99.90;;;;;;5041419;28;20094;-83
2022/11/23 01:29:09;;;;;;;13.45;11.25;;;8.00;99.90;;;;;;5035221;28;20498;-83
2022/11/23 01:31:34;;;;;;;12.93;11.45;;;8.10;99.90;;;;;;5035027;28;20052;-83
2022/11/23 01:34:01;;;;;;;12.57;11.25;;;8.10;99.90;;;;;;5045646;28;20025;-83
2022/11/23 01:36:29;;;;;;;14.48;10.90;;;8.10;99.90;;;;;;5037377;28;20038;-83
2022/11/23 01:38:56;;;;;;;15.48;10.35;;;8.10;99.90;;;;;;5040384;28;20037;-83
2022/11/23 01:41:42;;;;;;;15.18;11.85;;;8.10;99.90;;;;;;5044368;28;20087;-82
2022/11/23 01:44:28;;;;;;;12.80;10.15;;;8.10;99.90;;;;;;5043165;28;20048;-82
2022/11/23 01:46:57;;;;;;;14.13;10.77;;;8.10;99.90;;;;;;5027500;28;20037;-85
2022/11/23 01:49:24;;;;;;;13.82;10.80;;;8.10;99.90;;;;;;5049389;28;20063;-83
2022/11/23 01:51:53;;;;;;;13.07;10.48;;;8.10;99.90;;;;;;5043009;28;20033;-83
2022/11/23 01:54:35;;;;;;;11.93;10.27;;;8.20;99.90;;;;;;5038983;28;20036;-83
2022/11/23 01:57:11;;;;;;;13.52;10.57;;;8.10;99.90;;;;;;5053861;28;20071;-84
2022/11/23 01:59:37;;;;;;;11.60;10.30;;;8.20;99.90;;;;;;5042779;28;20041;-84
2022/11/23 02:02:03;;;;;;;14.18;10.18;;;8.20;99.90;;;;;;5041748;28;20046;-81
2022/11/23 02:04:33;;;;;;;13.38;11.18;;;8.10;99.90;;;;;;5027803;28;20028;-84
2022/11/23 02:07:01;;;;;;;13.90;10.85;;;8.20;99.90;;;;;;5039154;28;20044;-83
2022/11/23 02:09:30;;;;;;;15.82;10.88;;;8.20;99.90;;;;;;5043509;28;20040;-83
2022/11/23 02:11:56;;;;;;;14.85;11.25;;;8.20;99.90;;;;;;5052175;28;20112;-84
2022/11/23 02:14:21;;;;;;;18.65;11.60;;;8.20;99.90;;;;;;5041564;28;20065;-83
2022/11/23 02:16:47;;;;;;;14.93;11.70;;;8.20;99.90;;;;;;5041380;28;20701;-83
2022/11/23 02:19:25;;;;;;;13.85;11.35;;;8.20;99.90;;;;;;5045155;28;20514;-83
2022/11/23 02:21:52;;;;;;;13.18;10.98;;;8.10;99.90;;;;;;5019924;28;20089;-83
2022/11/23 02:24:29;;;;;;;14.30;11.52;;;8.10;99.90;;;;;;5041422;28;20045;-83
2022/11/23 02:26:55;;;;;;;13.93;11.40;;;8.10;99.90;;;;;;5048540;28;20036;-83
2022/11/23 02:29:26;;;;;;;16.00;11.73;;;8.10;99.90;;;;;;5051980;28;20401;-83
2022/11/23 02:31:53;;;;;;;17.83;11.23;;;8.00;99.90;;;;;;5047441;28;20044;-83
2022/11/23 02:34:19;;;;;;;15.05;11.55;;;8.10;99.90;;;;;;5017700;28;20030;-83
2022/11/23 02:36:53;;;;;;;14.65;11.32;;;8.10;99.90;;;;;;5041668;28;20025;-83
2022/11/23 02:39:39;;;;;;;15.98;10.82;;;8.10;99.90;;;;;;5042322;28;20093;-84
2022/11/23 02:42:05;;;;;;;14.02;11.60;;;8.10;99.90;;;;;;5038225;28;20041;-83
2022/11/23 02:45:05;;;;;;;14.98;10.98;;;8.10;99.90;;;;;;5039403;28;20779;-83
2022/11/23 02:47:31;;;;;;;16.70;11.95;;;8.10;99.90;;;;;;5051514;28;20449;-83
2022/11/23 02:49:56;;;;;;;12.77;11.38;;;8.20;99.90;;;;;;5045069;28;20033;-83
2022/11/23 02:52:23;;;;;;;16.48;11.15;;;8.10;99.90;;;;;;5039779;28;20041;-84
2022/11/23 02:54:48;;;;;;;16.38;11.75;;;8.10;99.90;;;;;;5050268;28;20037;-84
2022/11/23 02:57:14;;;;;;;14.40;11.60;;;8.20;99.90;;;;;;5038034;28;20067;-84
2022/11/23 02:59:40;;;;;;;14.48;10.63;;;8.20;99.90;;;;;;5039337;28;20026;-82
2022/11/23 03:02:06;;;;;;;15.88;11.48;;;8.20;99.90;;;;;;5051253;28;20057;-84
2022/11/23 03:04:32;;;;;;;20.33;12.18;;;8.20;99.90;;;;;;5031333;28;20049;-83
2022/11/23 03:06:58;;;;;;;18.08;11.63;;;8.20;99.90;;;;;;5035593;28;20033;-84
2022/11/23 03:09:25;;;;;;;20.50;13.35;;;8.20;99.90;;;;;;5013465;28;20048;-82
2022/11/23 03:11:51;;;;;;;17.08;12.45;;;8.20;99.90;;;;;;5015731;28;20065;-84
2022/11/23 03:14:17;;;;;;;17.90;12.63;;;8.20;99.90;;;;;;5040007;28;20038;-83
2022/11/23 03:16:43;;;;;;;18.20;12.77;;;8.20;99.90;;;;;;5039652;28;20067;-84
2022/11/23 03:19:08;;;;;;;14.85;12.57;;;8.20;99.90;;;;;;5012881;28;20033;-83
2022/11/23 03:21:34;;;;;;;17.85;11.82;;;8.20;99.90;;;;;;5027809;28;20072;-83
2022/11/23 03:24:00;;;;;;;16.67;11.95;;;8.20;99.90;;;;;;5042879;28;20037;-84
2022/11/23 03:26:25;;;;;;;17.27;13.05;;;8.20;99.90;;;;;;5043712;28;20121;-82
2022/11/23 03:28:51;;;;;;;18.77;12.30;;;8.20;99.90;;;;;;5009675;28;20038;-84
2022/11/23 03:31:16;;;;;;;18.52;12.88;;;8.20;99.90;;;;;;5037639;28;20025;-83
2022/11/23 03:33:42;;;;;;;21.13;13.43;;;8.30;99.90;;;;;;5028998;28;20068;-84
2022/11/23 03:36:08;;;;;;;19.55;13.38;;;8.30;99.90;;;;;;5034424;28;20041;-83
2022/11/23 03:38:34;;;;;;;21.75;13.15;;;8.20;99.90;;;;;;5041988;28;20088;-84
2022/11/23 03:40:59;;;;;;;20.33;13.75;;;8.30;99.90;;;;;;5037100;28;20097;-84
2022/11/23 03:43:25;;;;;;;21.67;15.10;;;8.30;99.90;;;;;;5041201;28;20715;-83
2022/11/23 03:45:51;;;;;;;22.65;15.50;;;8.30;99.90;;;;;;5038834;28;20064;-83
2022/11/23 03:48:16;;;;;;;22.20;13.88;;;8.30;99.90;;;;;;5033066;28;20361;-84
2022/11/23 03:50:43;;;;;;;23.35;14.98;;;8.30;99.90;;;;;;5012533;28;20136;-83
2022/11/23 03:53:09;;;;;;;20.92;14.80;;;8.30;99.90;;;;;;5032796;28;20145;-84
2022/11/23 03:55:35;;;;;;;25.30;16.52;;;8.30;99.90;;;;;;5038450;28;20080;-84
2022/11/23 03:58:00;;;;;;;28.55;17.73;;;8.30;99.90;;;;;;5053562;28;20025;-84
2022/11/23 04:00:28;;;;;;;24.40;17.75;;;8.30;99.90;;;;;;5053361;28;20053;-83
2022/11/23 04:02:54;;;;;;;23.92;16.95;;;8.30;99.90;;;;;;5036774;28;20049;-83
2022/11/23 04:05:20;;;;;;;22.58;16.42;;;8.30;99.90;;;;;;5053887;28;20045;-83
2022/11/23 04:07:46;;;;;;;24.30;16.83;;;8.30;99.90;;;;;;5024920;28;20037;-83
2022/11/23 04:10:14;;;;;;;24.55;17.50;;;8.30;99.90;;;;;;5026243;28;20055;-83
2022/11/23 04:12:40;;;;;;;26.63;18.58;;;8.30;99.90;;;;;;5032234;28;20113;-83
2022/11/23 04:15:06;;;;;;;26.17;17.73;;;8.30;99.90;;;;;;5031306;28;20603;-84
2022/11/23 04:17:32;;;;;;;24.42;16.35;;;8.30;99.90;;;;;;5040985;28;20042;-83
2022/11/23 04:19:57;;;;;;;22.70;16.35;;;8.30;99.90;;;;;;5027066;28;20142;-84
2022/11/23 04:22:23;;;;;;;24.05;15.65;;;8.40;99.90;;;;;;5033157;28;20049;-83
2022/11/23 04:24:49;;;;;;;23.95;15.98;;;8.30;99.90;;;;;;5033740;28;20086;-83
2022/11/23 04:27:15;;;;;;;24.55;16.98;;;8.30;99.90;;;;;;5020821;28;20042;-85
2022/11/23 04:29:40;;;;;;;26.52;16.90;;;8.30;99.90;;;;;;5042478;28;20106;-83
2022/11/23 04:32:06;;;;;;;23.83;16.27;;;8.30;99.90;;;;;;5040607;28;20068;-84
2022/11/23 04:34:31;;;;;;;25.55;16.90;;;8.30;99.90;;;;;;5072606;23;20041;-80
2022/11/23 04:36:57;;;;;;;24.83;16.30;;;8.30;99.90;;;;;;5017573;28;20188;-81
2022/11/23 04:39:22;;;;;;;24.67;16.27;;;8.30;99.90;;;;;;5040215;28;20117;-80
2022/11/23 04:41:48;;;;;;;20.73;15.20;;;8.30;99.90;;;;;;5027338;28;20033;-81
2022/11/23 04:44:14;;;;;;;22.00;14.90;;;8.30;99.90;;;;;;5013045;28;20108;-80
2022/11/23 04:46:39;;;;;;;25.25;15.93;;;8.30;99.90;;;;;;5023424;28;20037;-81
2022/11/23 04:49:05;;;;;;;23.10;14.60;;;8.30;99.90;;;;;;5016821;28;20487;-81
2022/11/23 04:51:37;;;;;;;25.27;15.98;;;8.20;99.90;;;;;;5018178;28;20128;-81
2022/11/23 04:54:03;;;;;;;20.20;15.30;;;8.30;99.90;;;;;;5010005;28;20505;-81
2022/11/23 04:56:29;;;;;;;24.15;14.38;;;8.30;99.90;;;;;;5020465;28;20423;-81
2022/11/23 04:58:55;;;;;;;21.90;15.68;;;8.30;99.90;;;;;;5010315;28;20109;-81
2022/11/23 05:01:21;;;;;;;27.33;16.17;;;8.30;99.90;;;;;;4999951;28;20034;-81
2022/11/23 05:03:47;;;;;;;19.38;14.80;;;8.30;99.90;;;;;;5011933;28;20045;-81
2022/11/23 05:06:13;;;;;;;22.90;14.75;;;8.30;99.90;;;;;;5015183;28;20073;-81
2022/11/23 05:08:38;;;;;;;21.95;14.15;;;8.30;99.90;;;;;;5014799;28;20033;-81
2022/11/23 05:11:04;;;;;;;24.02;14.65;;;8.30;99.90;;;;;;5014689;28;20072;-80
2022/11/23 05:13:30;;;;;;;22.63;14.45;;;8.30;99.90;;;;;;5024105;28;20116;-81
2022/11/23 05:15:55;;;;;;;22.77;14.48;;;8.30;99.90;;;;;;5005895;28;20056;-81
2022/11/23 05:18:21;;;;;;;23.05;15.20;;;8.30;99.90;;;;;;5014405;28;20120;-81
2022/11/23 05:20:47;;;;;;;20.90;13.68;;;8.20;99.90;;;;;;5001878;28;20034;-81
2022/11/23 05:23:13;;;;;;;18.25;12.95;;;8.20;99.90;;;;;;5017786;28;20057;-81
2022/11/23 05:25:38;;;;;;;20.27;12.75;;;8.30;99.90;;;;;;5008364;28;20062;-81
2022/11/23 05:28:04;;;;;;;18.10;12.48;;;8.30;99.90;;;;;;5007699;28;20099;-81
2022/11/23 05:30:30;;;;;;;19.48;11.13;;;8.20;99.90;;;;;;5010673;28;20065;-81
2022/11/23 05:33:03;;;;;;;17.48;11.27;;;8.20;99.90;;;;;;5018087;28;20045;-81
2022/11/23 05:35:29;;;;;;;17.48;11.00;;;8.30;99.90;;;;;;4996303;28;20034;-81
2022/11/23 05:37:55;;;;;;;15.98;10.05;;;8.20;99.90;;;;;;4989940;28;20488;-81
2022/11/23 05:40:21;;;;;;;15.02;9.98;;;8.20;99.90;;;;;;5006906;28;20045;-80
2022/11/23 05:42:47;;;;;;;16.90;10.40;;;8.10;99.90;;;;;;5014620;28;20113;-82
2022/11/23 05:45:13;;;;;;;17.52;10.43;;;8.10;99.90;;;;;;5012707;28;20066;-81
2022/11/23 05:47:38;;;;;;;15.52;9.25;;;8.00;99.90;;;;;;4990646;28;20075;-81
2022/11/23 05:50:05;;;;;;;12.68;9.57;;;8.00;99.90;;;;;;5015223;28;20426;-80
2022/11/23 05:52:30;;;;;;;13.10;8.85;;;8.00;99.90;;;;;;5009424;28;20045;-81
2022/11/23 05:54:56;;;;;;;15.55;9.70;;;8.00;99.90;;;;;;5000205;28;20038;-82
2022/11/23 05:57:22;;;;;;;17.00;8.88;;;7.90;99.90;;;;;;5013651;28;20043;-80
2022/11/23 05:59:48;;;;;;;13.57;8.60;;;7.90;99.90;;;;;;5010293;28;20502;-81
2022/11/23 06:02:14;;;;;;;13.02;8.55;;;7.80;99.90;;;;;;5005666;28;20455;-80
2022/11/23 06:04:40;;;;;;;13.98;7.72;;;7.80;99.90;;;;;;5017774;28;20286;-81
2022/11/23 06:07:08;;;;;;;14.77;7.22;;;7.80;99.90;;;;;;5017933;28;20064;-81
2022/11/23 06:09:35;;;;;;;12.40;7.65;;;7.70;99.90;;;;;;5023424;28;20077;-81
2022/11/23 06:12:00;;;;;;;12.35;7.38;;;7.60;99.90;;;;;;5017240;28;20038;-81
2022/11/23 06:14:26;;;;;;;13.77;7.32;;;7.60;99.90;;;;;;4995976;28;20061;-82
2022/11/23 06:16:51;;;;;;;13.80;7.25;;;7.60;99.90;;;;;;5022020;28;20052;-80
2022/11/23 06:19:17;;;;;;;12.93;6.97;;;7.50;99.90;;;;;;5017304;28;20042;-81
2022/11/23 06:21:42;;;;;;;14.43;7.57;;;7.40;99.90;;;;;;5017705;28;20034;-81
2022/11/23 06:24:09;;;;;;;18.40;7.97;;;7.30;99.90;;;;;;5001980;28;20038;-82
2022/11/23 06:26:35;;;;;;;14.80;7.63;;;7.30;99.90;;;;;;4999569;28;20034;-81
2022/11/23 06:29:00;;;;;;;14.65;7.15;;;7.20;99.90;;;;;;5005313;28;20041;-80
2022/11/23 06:31:26;;;;;;;16.67;7.97;;;7.20;99.90;;;;;;5003883;28;20076;-81
2022/11/23 06:33:52;;;;;;;13.32;6.65;;;7.10;99.90;;;;;;5000230;28;20477;-82
2022/11/23 06:36:17;;;;;;;13.20;6.97;;;7.10;99.90;;;;;;5001725;28;20044;-84
2022/11/23 06:38:44;;;;;;;16.23;7.93;;;7.00;99.90;;;;;;4988624;28;20110;-88
2022/11/23 06:41:10;;;;;;;13.85;7.60;;;7.00;99.90;;;;;;5004189;28;20129;-87
2022/11/23 06:43:46;;;;;;;13.40;7.65;;;7.00;99.90;;;;;;5004651;28;20080;-86
2022/11/23 06:46:11;;;;;;;16.63;7.80;;;6.90;99.90;;;;;;4987350;28;20041;-90
2022/11/23 06:48:37;;;;;;;10.63;7.35;;;6.90;99.90;;;;;;5007242;28;20038;-86
2022/11/23 06:51:03;;;;;;;13.85;7.15;;;6.80;99.90;;;;;;5003107;28;20040;-88
2022/11/23 06:53:29;;;;;;;17.20;7.72;;;6.80;99.90;;;;;;4986898;28;20095;-86
2022/11/23 06:55:59;;;;;;;15.38;7.88;;;6.80;99.90;;;;;;4990985;28;20437;-84
2022/11/23 06:58:25;;;;;;;19.25;7.85;;;6.70;99.90;;;;;;5003516;28;20803;-85
2022/11/23 07:00:50;;;;;;;14.20;8.35;;;6.80;99.90;;;;;;4998595;28;20042;-84
2022/11/23 07:03:22;;;;;;;15.70;8.93;;;6.80;99.90;;;;;;4993260;28;20030;-85
2022/11/23 07:05:48;;;;;;;13.63;7.85;;;6.80;99.90;;;;;;4988215;28;20040;-87
2022/11/23 07:08:13;;;;;;;16.40;8.30;;;6.70;99.90;;;;;;4998650;28;20034;-86
2022/11/23 07:10:39;;;;;;;17.38;8.15;;;6.80;99.90;;;;;;4981071;28;20468;-86
2022/11/23 07:13:06;;;;;;;18.27;8.50;;;6.90;99.90;;;;;;4985714;28;20121;-85
2022/11/23 07:15:31;;;;;;;13.15;7.40;;;6.90;99.90;;;;;;4995498;28;20062;-85
2022/11/23 07:17:57;;;;;;;13.27;7.72;;;6.90;99.90;;;;;;5005848;28;20049;-87
2022/11/23 07:20:23;;;;;;;18.15;8.18;;;7.00;99.90;;;;;;5022686;28;20025;-85
2022/11/23 07:22:59;;;;;;;21.20;8.25;;;7.10;99.90;;;;;;5029796;28;20046;-84
2022/11/23 07:25:24;;;;;;;14.98;8.30;;;7.10;99.90;;;;;;5017557;28;20064;-85
2022/11/23 07:27:57;;;;;;;13.23;7.95;;;7.20;99.90;;;;;;5008576;28;20041;-85
2022/11/23 07:30:24;;;;;;;15.45;8.38;;;7.30;99.90;;;;;;5004902;28;20088;-84
2022/11/23 07:32:51;;;;;;;16.52;8.50;;;7.30;99.90;;;;;;4980694;28;20565;-82
2022/11/23 07:35:17;;;;;;;13.57;8.32;;;7.30;99.90;;;;;;4983894;28;20069;-86
2022/11/23 07:37:43;;;;;;;14.05;7.85;;;7.50;99.90;;;;;;4977057;28;20507;-86
2022/11/23 07:40:10;;;;;;;14.68;8.27;;;7.40;99.90;;;;;;4986067;28;20042;-86
2022/11/23 07:42:35;;;;;;;16.60;8.88;;;7.50;99.90;;;;;;4979284;28;20034;-86
2022/11/23 07:45:02;;;;;;;12.32;8.25;;;7.50;99.90;;;;;;5002999;28;20037;-86
2022/11/23 07:47:28;;;;;;;17.45;7.93;;;7.50;99.90;;;;;;4984899;28;20034;-86
2022/11/23 07:49:53;;;;;;;18.60;8.38;;;7.70;99.90;;;;;;4982271;28;20045;-86
2022/11/23 07:52:19;;;;;;;13.85;8.32;;;7.60;99.90;;;;;;4981273;28;20450;-86
2022/11/23 07:54:45;;;;;;;14.60;7.43;;;7.80;99.90;;;;;;5003608;28;20080;-86
2022/11/23 07:57:10;;;;;;;16.13;7.95;;;7.70;99.90;;;;;;4987222;28;20037;-86
2022/11/23 07:59:36;;;;;;;16.20;8.18;;;7.80;99.90;;;;;;4989994;28;20038;-86
2022/11/23 08:02:02;;;;;;;12.95;7.90;;;7.80;99.90;;;;;;4983947;28;20037;-86
2022/11/23 08:04:28;;;;;;;14.85;7.57;;;7.90;99.90;;;;;;4998475;28;20479;-86
2022/11/23 08:06:54;;;;;;;17.23;7.47;;;7.90;99.90;;;;;;5003742;28;20054;-86
2022/11/23 08:09:20;;;;;;;12.73;6.30;;;8.00;99.90;;;;;;5006232;28;20041;-85
2022/11/23 08:11:46;;;;;;;15.13;7.43;;;8.00;99.90;;;;;;5011497;28;20053;-86
2022/11/23 08:14:12;;;;;;;12.75;7.00;;;8.10;99.90;;;;;;5012248;28;20514;-86
2022/11/23 08:16:37;;;;;;;13.40;6.45;;;8.10;99.90;;;;;;5001187;28;20048;-86
2022/11/23 08:19:03;;;;;;;14.80;6.25;;;8.20;99.90;;;;;;4984231;28;20034;-86
2022/11/23 08:21:28;;;;;;;12.60;6.55;;;8.20;99.90;;;;;;4982668;28;20031;-86
2022/11/23 08:23:54;;;;;;;14.63;6.53;;;8.20;99.90;;;;;;5003671;28;20037;-86
2022/11/23 08:26:20;;;;;;;10.68;5.75;;;8.30;99.90;;;;;;4992710;28;20034;-86
2022/11/23 08:28:45;;;;;;;18.30;7.22;;;8.20;99.90;;;;;;5010023;28;20030;-86
2022/11/23 08:31:13;;;;;;;20.58;6.30;;;8.40;99.90;;;;;;5007485;28;20429;-86
2022/11/23 08:33:39;;;;;;;16.45;5.63;;;8.40;99.90;;;;;;4997229;28;20720;-85
2022/11/23 08:36:06;;;;;;;14.95;5.60;;;8.50;99.90;;;;;;4983969;28;20475;-85
2022/11/23 08:38:32;;;;;;;12.50;5.25;;;8.50;99.90;;;;;;5004425;28;20132;-85
2022/11/23 08:40:59;;;;;;;12.77;5.75;;;8.60;99.90;;;;;;5010830;28;20058;-86
2022/11/23 08:43:26;;;;;;;14.82;5.75;;;8.60;99.90;;;;;;5011460;28;20045;-87
2022/11/23 08:45:56;;;;;;;11.55;5.72;;;8.70;99.90;;;;;;5013961;28;20037;-87
2022/11/23 08:48:22;;;;;;;13.23;5.30;;;8.80;99.90;;;;;;5014168;28;20402;-86
2022/11/23 08:50:48;;;;;;;13.60;5.65;;;8.90;99.90;;;;;;5017268;28;20048;-84
2022/11/23 08:53:14;;;;;;;12.52;4.82;;;9.00;99.90;;;;;;5022094;28;20038;-86
2022/11/23 08:55:39;;;;;;;12.65;6.13;;;9.10;99.90;;;;;;4990369;28;20460;-86
2022/11/23 08:58:07;;;;;;;14.23;6.20;;;9.30;99.90;;;;;;5012547;28;20041;-86
2022/11/23 09:00:33;;;;;;;15.75;6.07;;;9.20;99.90;;;;;;5007610;28;20447;-86
2022/11/23 09:02:59;;;;;;;15.70;5.00;;;9.30;99.90;;;;;;4996329;28;20033;-75
2022/11/23 09:05:25;;;;;;;14.55;5.07;;;9.30;99.90;;;;;;5015994;28;20399;-87
2022/11/23 09:07:51;;;;;;;13.40;4.82;;;9.40;99.90;;;;;;5001020;28;20188;-86
2022/11/23 09:10:27;;;;;;;14.05;6.15;;;9.30;99.90;;;;;;5010959;28;20088;-85
2022/11/23 09:12:59;;;;;;;16.10;5.88;;;9.30;99.90;;;;;;5008749;28;20037;-86
2022/11/23 09:15:27;;;;;;;13.15;4.60;;;9.30;99.90;;;;;;4991579;28;20045;-87
2022/11/23 09:17:53;;;;;;;15.75;4.68;;;9.20;99.90;;;;;;4989951;28;20052;-87
2022/11/23 09:20:19;;;;;;;11.38;4.18;;;9.30;99.90;;;;;;5008506;28;20042;-87
2022/11/23 09:22:51;;;;;;;13.52;4.57;;;9.20;99.90;;;;;;5009885;28;20038;-85
2022/11/23 09:25:20;;;;;;;11.43;4.90;;;9.20;99.90;;;;;;4992616;28;20030;-87
2022/11/23 09:27:46;;;;;;;11.48;4.30;;;9.20;99.90;;;;;;4990573;28;20084;-87
2022/11/23 09:30:13;;;;;;;10.15;3.90;;;9.20;99.90;;;;;;5006034;28;20042;-87
2022/11/23 09:32:39;;;;;;;10.20;3.95;;;9.20;99.90;;;;;;5001639;28;20152;-87
2022/11/23 09:35:06;;;;;;;14.18;4.60;;;9.20;99.90;;;;;;5007139;28;20075;-87
2022/11/23 09:37:32;;;;;;;12.63;4.18;;;9.20;99.90;;;;;;4988905;28;20042;-88
2022/11/23 09:39:57;;;;;;;8.13;3.50;;;9.30;99.90;;;;;;5007023;28;20048;-88
2022/11/23 09:42:59;;;;;;;8.90;4.20;;;9.20;99.90;;;;;;5006955;28;20085;-89
2022/11/23 09:45:29;;;;;;;14.88;5.10;;;9.20;99.90;;;;;;5005200;28;20044;-88
2022/11/23 09:48:07;;;;;;;12.63;5.68;;;9.20;99.90;;;;;;5006317;28;20034;-88
2022/11/23 09:51:12;;;;;;;18.42;5.53;;;9.20;99.90;;;;;;4999616;28;20049;-88
2022/11/23 09:54:04;;;;;;;11.70;4.90;;;9.20;99.90;;;;;;5012282;28;20061;-88
2022/11/23 09:56:35;;;;;;;11.43;4.75;;;9.10;99.90;;;;;;5004848;28;20494;-88
2022/11/23 09:59:11;;;;;;;15.70;3.80;;;9.10;99.90;;;;;;5004547;28;20129;-87
2022/11/23 10:01:37;;;;;;;15.48;5.47;;;9.10;99.90;;;;;;5006680;28;20084;-88
2022/11/23 10:04:10;;;;;;;14.32;4.35;;;9.20;99.90;;;;;;5003117;28;20556;-88
2022/11/23 10:06:41;;;;;;;10.52;3.60;;;9.20;99.90;;;;;;5007211;28;20121;-88
2022/11/23 10:09:40;;;;;;;10.18;3.63;;;9.20;99.90;;;;;;5005558;28;20494;-88
2022/11/23 10:13:04;;;;;;;9.60;3.40;;;9.20;99.90;;;;;;5010115;28;20038;-88
2022/11/23 10:15:39;;;;;;;13.80;4.03;;;9.20;99.90;;;;;;4979278;28;20623;-88
2022/11/23 10:18:17;;;;;;;14.38;3.70;;;9.20;99.90;;;;;;4999566;28;20034;-88
2022/11/23 10:21:11;;;;;;;11.13;3.90;;;9.10;99.90;;;;;;5002030;28;20557;-88
2022/11/23 10:23:36;;;;;;;13.23;3.80;;;9.10;99.90;;;;;;4992502;28;20044;-88
2022/11/23 10:26:02;;;;;;;11.75;4.18;;;9.10;99.90;;;;;;5002404;28;20129;-88
2022/11/23 10:28:30;;;;;;;13.25;3.80;;;9.10;99.90;;;;;;5002892;28;20049;-88
2022/11/23 10:31:10;;;;;;;8.77;3.35;;;9.00;99.90;;;;;;4987995;28;20044;-87
2022/11/23 10:34:20;;;;;;;11.68;3.50;;;9.10;99.90;;;;;;4992481;28;20125;-87
2022/11/23 10:36:48;;;;;;;17.80;4.00;;;9.10;99.90;;;;;;4999189;28;20038;-87
2022/11/23 10:39:30;;;;;;;14.48;3.55;;;9.10;99.90;;;;;;4997474;28;20444;-85
2022/11/23 10:42:13;;;;;;;8.88;3.42;;;9.20;99.90;;;;;;5003409;28;20105;-89
2022/11/23 10:44:45;;;;;;;13.45;3.88;;;9.20;99.90;;;;;;5016743;28;20390;-89
2022/11/23 10:47:58;;;;;;;11.48;3.25;;;9.40;99.90;;;;;;4988235;28;20030;-90
2022/11/23 10:50:36;;;;;;;12.82;3.72;;;9.50;99.90;;;;;;4966313;28;20045;-89
2022/11/23 10:53:08;;;;;;;11.18;4.13;;;9.70;99.90;;;;;;4993442;28;20034;-88
2022/11/23 10:56:07;;;;;;;10.93;3.20;;;10.30;99.90;;;;;;5005909;28;20042;-87
2022/11/23 10:58:44;;;;;;;16.73;4.40;;;11.50;99.90;;;;;;5012499;28;20053;-88
2022/11/23 11:01:30;;;;;;;14.18;4.47;;;12.90;99.90;;;;;;5015579;28;20034;-91
2022/11/23 11:07:41;;;;;;;9.65;3.88;;;14.40;99.90;;;;;;4938291;28;20094;-89
2022/11/23 11:10:30;;;;;;;10.00;3.25;;;15.00;99.90;;;;;;5006613;28;20042;-89
2022/11/23 11:12:56;;;;;;;9.57;3.42;;;15.30;99.90;;;;;;5011439;28;20047;-89
2022/11/23 11:15:35;;;;;;;;;;;;;;;;;;;;;
2022/11/23 11:18:18;;;;;;;11.13;3.67;;;15.20;99.90;;;;;;5002541;28;20042;-89
2022/11/23 11:21:03;;;;;;;6.28;3.78;;;15.50;99.90;;;;;;4989959;28;20045;-89
2022/11/23 11:23:41;;;;;;;8.40;2.90;;;15.60;99.90;;;;;;4998836;28;20039;-86
2022/11/23 11:26:36;;;;;;;10.52;2.92;;;16.00;99.90;;;;;;4994627;28;20459;-84
2022/11/23 11:29:05;;;;;;;8.98;3.42;;;16.00;99.90;;;;;;4990866;28;20458;-85
2022/11/23 11:31:40;;;;;;;6.93;3.10;;;16.10;99.90;;;;;;5014864;28;20056;-86
2022/11/23 11:34:52;;;;;;;9.50;3.40;;;16.10;99.90;;;;;;5006397;28;20074;-84
2022/11/23 11:37:30;;;;;;;8.65;2.65;;;16.20;99.90;;;;;;5004533;28;20050;-85
2022/11/23 11:40:20;;;;;;;9.57;3.53;;;16.20;99.90;;;;;;5033945;28;20045;-85
2022/11/23 11:42:54;;;;;;;7.55;2.58;;;16.40;99.90;;;;;;5025120;28;20029;-84
2022/11/23 11:45:35;;;;;;;6.80;2.00;;;16.60;99.90;;;;;;5012717;28;20061;-86
2022/11/23 11:48:16;;;;;;;7.05;2.20;;;16.70;99.90;;;;;;5006054;28;20092;-87
2022/11/23 11:51:07;;;;;;;10.55;2.47;;;17.10;99.90;;;;;;5003946;28;20037;-87
2022/11/23 11:53:53;;;;;;;8.70;2.72;;;17.00;99.90;;;;;;5009171;28;20046;-84
2022/11/23 11:56:27;;;;;;;10.05;2.53;;;17.20;99.90;;;;;;4988786;28;20050;-85
2022/11/23 11:59:12;;;;;;;8.60;2.47;;;17.00;99.90;;;;;;5004971;28;20046;-84
2022/11/23 12:02:05;;;;;;;6.18;2.60;;;16.60;99.90;;;;;;5004206;28;20058;-84
2022/11/23 12:04:53;;;;;;;8.98;2.67;;;16.40;99.90;;;;;;5007765;28;20054;-84
2022/11/23 12:07:28;;;;;;;8.60;2.50;;;15.90;99.90;;;;;;5017272;28;20045;-83
2022/11/23 12:10:05;;;;;;;9.18;2.58;;;15.20;99.90;;;;;;4991878;28;20038;-84
2022/11/23 12:12:33;;;;;;;7.78;2.13;;;14.40;99.90;;;;;;4986735;28;20109;-84
2022/11/23 12:14:59;;;;;;;10.70;2.35;;;13.80;99.90;;;;;;4989275;28;20038;-84
2022/11/23 12:17:45;;;;;;;11.43;2.78;;;14.00;99.90;;;;;;5015030;28;20049;-85
2022/11/23 12:20:55;;;;;;;9.40;2.58;;;14.50;99.90;;;;;;5024927;28;20037;-85
2022/11/23 12:23:36;;;;;;;7.28;2.33;;;15.10;99.90;;;;;;4990611;28;20040;-85
2022/11/23 12:26:35;;;;;;;8.70;2.20;;;15.60;99.90;;;;;;5012150;28;20038;-84
2022/11/23 12:29:39;;;;;;;10.30;2.55;;;15.80;98.50;;;;;;4990595;28;20121;-84
2022/11/23 12:32:52;;;;;;;7.47;2.30;;;16.30;99.90;;;;;;5009800;28;20120;-85
2022/11/23 12:35:43;;;;;;;7.15;2.35;;;16.00;91.00;;;;;;4991091;28;20568;-84
2022/11/23 12:38:17;;;;;;;5.03;2.03;;;16.60;95.90;;;;;;5007773;28;20042;-82
2022/11/23 12:41:07;;;;;;;7.57;2.25;;;16.80;99.90;;;;;;4991538;28;20034;-81
2022/11/23 12:44:22;;;;;;;9.82;3.85;;;17.30;80.30;;;;;;5006734;28;20499;-82
2022/11/23 12:47:04;;;;;;;7.30;2.90;;;17.30;85.70;;;;;;4999011;28;20045;-84
2022/11/23 12:49:47;;;;;;;7.80;3.40;;;17.50;91.10;;;;;;4988196;28;20045;-84
2022/11/23 12:52:19;;;;;;;5.57;2.40;;;17.20;82.30;;;;;;5005737;28;20487;-82
2022/11/23 12:55:06;;;;;;;6.53;2.25;;;17.30;90.60;;;;;;4993174;28;20056;-82
2022/11/23 12:57:45;;;;;;;6.28;2.30;;;17.40;81.80;;;;;;4995405;28;20061;-90
2022/11/23 13:00:19;;;;;;;6.88;2.10;;;17.40;77.30;;;;;;5002598;28;20065;-85
2022/11/23 13:02:57;;;;;;;13.70;5.80;;;16.90;78.70;;;;;;4985817;28;20529;-86
2022/11/23 13:05:50;;;;;;;9.73;2.55;;;16.80;81.60;;;;;;4983624;28;20066;-85